27 mai 2022

Temps Code Temps Temp. Vue Base cloud Vent METAR/SPECI
1:20 pm
V
61 °F 6¼ mi+ - 280° 280° 19 kt METAR EDDW 271120Z AUTO 28019KT 9999 SCT045 16/06 Q1016 TEMPO 28020G35KT
12:50 pm
V
61 °F 6¼ mi+ - 280° 280° 19 kt METAR EDDW 271050Z AUTO 28019KT 9999 FEW045 16/06 Q1016 TEMPO 28020G35KT
12:20 pm
V
57 °F 6¼ mi+ - 290° 290° 20 - 30 kt METAR EDDW 271020Z AUTO 29020G30KT 9999 SCT048 14/05 Q1017 NOSIG
11:50 am
V
57 °F 6¼ mi+ - 270° 270° 21 kt METAR EDDW 270950Z AUTO 27021KT 9999 SCT045 14/05 Q1016 TEMPO 28020G35KT
11:20 am
V
59 °F 6¼ mi+ - 280° 280° 19 kt METAR EDDW 270920Z AUTO 28019KT 9999 FEW044 15/05 Q1016 TEMPO 28020G35KT
10:50 am
V
57 °F 6¼ mi+ - 270° 270° 20 kt METAR EDDW 270850Z AUTO 27020KT 9999 SCT044 14/05 Q1016 TEMPO 28020G35KT
10:20 am
V
59 °F 6¼ mi+ - 270° 270° 19 - 32 kt METAR EDDW 270820Z AUTO 27019G32KT 240V300 9999 FEW040 15/06 Q1016 NOSIG
9:50 am
V
59 °F 6¼ mi+ - 270° 270° 14 kt METAR EDDW 270750Z AUTO 27014KT 250V310 9999 SCT038 SCT047 15/07 Q1016 BECMG 28020G30KT
9:20 am
V
57 °F 6¼ mi+ - 280° 280° 14 kt METAR EDDW 270720Z AUTO 28014KT 9999 FEW032 SCT040 14/07 Q1016 BECMG 28020G30KT
8:50 am
V
55 °F 6¼ mi+ 3.000 ft 270° 270° 11 kt METAR EDDW 270650Z AUTO 27011KT 9999 BKN030 BKN040 13/08 Q1016 BECMG 28015G25KT
8:20 am
V
55 °F 6¼ mi+ - 280° 280° 12 kt METAR EDDW 270620Z AUTO 28012KT 9999 FEW031 SCT038 13/08 Q1016 BECMG 28015G25KT
7:50 am
V
55 °F 6¼ mi+ - 280° 280° 11 kt METAR EDDW 270550Z AUTO 28011KT 9999 FEW025 13/09 Q1016 BECMG 28015G25KT
7:20 am
V
55 °F 6¼ mi+ - 260° 260° 8 kt METAR EDDW 270520Z AUTO 26008KT CAVOK 13/09 Q1016 BECMG 27015G25KT
6:50 am
V
54 °F 6¼ mi+ - 270° 270° 9 kt METAR EDDW 270450Z AUTO 27009KT CAVOK 12/09 Q1016 BECMG 27015G25KT
6:20 am
V
54 °F 6¼ mi+ - 270° 270° 7 kt METAR EDDW 270420Z AUTO 27007KT CAVOK 12/09 Q1016 BECMG 27015G25KT
5:50 am
V
52 °F 6¼ mi+ - 270° 270° 7 kt METAR EDDW 270350Z AUTO 27007KT CAVOK 11/09 Q1015 BECMG 28015G25KT
5:20 am
V
52 °F 6¼ mi+ - 280° 280° 7 kt METAR EDDW 270320Z AUTO 28007KT CAVOK 11/09 Q1015
4:50 am
V
54 °F 6¼ mi+ - 300° 300° 8 kt METAR EDDW 270250Z AUTO 30008KT CAVOK 12/10 Q1015
4:20 am
V
55 °F 6¼ mi+ - 290° 290° 9 kt METAR EDDW 270220Z AUTO 29009KT CAVOK 13/11 Q1015
3:50 am
V
55 °F 6¼ mi+ - 280° 280° 9 kt METAR EDDW 270150Z AUTO 28009KT 9999 SCT022 13/12 Q1015
3:20 am
V
57 °F 5⅝ mi 4.800 ft 280° 280° 12 kt METAR EDDW 270120Z AUTO 28012KT 9000 -RA SCT009 BKN048 14/12 Q1015 RERA
2:50 am
V
57 °F 6¼ mi+ 4.300 ft 270° 270° 8 kt METAR EDDW 270050Z AUTO 27008KT 9999 RA SCT015 BKN043 14/13 Q1015
2:20 am
M
57 °F 6¼ mi+ 2.000 ft 260° 260° 9 kt METAR EDDW 270020Z AUTO 26009KT 9999 -SHRA BKN020 FEW///CB 14/13 Q1015
1:50 am
M
57 °F 6¼ mi+ 1.700 ft 260° 260° 11 kt METAR EDDW 262350Z AUTO 26011KT 9999 BKN017 BKN029 14/13 Q1015
1:20 am
V
57 °F 6¼ mi+ 3.800 ft 260° 260° 11 kt METAR EDDW 262320Z AUTO 26011KT 9999 FEW012 BKN038 14/13 Q1015
12:50 am
M
57 °F 6¼ mi+ 2.400 ft 260° 260° 12 kt METAR EDDW 262250Z AUTO 26012KT 9999 SCT014 BKN024 BKN049 14/13 Q1015
12:20 am
M
57 °F 5⅝ mi 1.500 ft 250° 250° 13 kt METAR EDDW 262220Z AUTO 25013KT 9000 -RADZ SCT010 BKN015 14/13 Q1016

26 mai 2022

Temps Code Temps Temp. Vue Base cloud Vent METAR/SPECI
11:50 pm
M
57 °F 6¼ mi+ 1.100 ft 240° 240° 12 kt METAR EDDW 262150Z AUTO 24012KT 9999 BKN011 OVC017 14/12 Q1016
11:20 pm
M
57 °F 5⅝ mi 2.300 ft 240° 240° 13 kt METAR EDDW 262120Z AUTO 24013KT 9000 -RADZ FEW012 SCT018 BKN023 14/12 Q1016
10:50 pm
M
57 °F 6¼ mi+ 2.400 ft 260° 260° 11 kt METAR EDDW 262050Z AUTO 26011KT 9999 -RADZ BKN024 14/11 Q1016 NOSIG
10:20 pm
V
57 °F 6¼ mi+ - 240° 240° 8 kt METAR EDDW 262020Z AUTO 24008KT 9999 -DZ FEW032 14/12 Q1016 NOSIG
9:50 pm
V
57 °F 6¼ mi+ 3.300 ft 220° 220° 8 kt METAR EDDW 261950Z AUTO 22008KT 9999 BKN033 OVC047 14/12 Q1016 NOSIG
9:20 pm
V
55 °F 6¼ mi+ 3.600 ft 230° 230° 5 kt METAR EDDW 261920Z AUTO 23005KT 200V260 9999 -DZ FEW021 BKN036 OVC048 13/12 Q1016 NOSIG
8:50 pm
I
55 °F 2¼ mi 3.300 ft 260° 260° 9 kt METAR EDDW 261850Z AUTO 26009KT 3600 -RADZ BR FEW007 BKN033 13/12 Q1017 REDZ TEMPO 6000 BKN008
8:20 pm
I
55 °F 1¾ mi 3.600 ft 260° 260° 8 kt METAR EDDW 261820Z AUTO 26008KT 2800 -RADZ BR FEW021 OVC036 13/12 Q1017 BECMG 8000
7:50 pm
M
57 °F 3¾ mi 3.000 ft 230° 230° 8 kt METAR EDDW 261750Z AUTO 23008KT 6000 -RADZ BKN030 BKN042 14/12 Q1017
7:20 pm
V
61 °F 6¼ mi+ 4.700 ft 250° 250° 13 kt METAR EDDW 261720Z AUTO 25013KT 9999 -RADZ FEW019 OVC047 16/11 Q1017 NOSIG
6:50 pm
V
63 °F 6¼ mi+ - 280° 280° 12 kt METAR EDDW 261650Z AUTO 28012KT 9999 FEW039 17/09 Q1017 TEMPO 30015G25KT
6:20 pm
V
64 °F 6¼ mi+ - 280° 280° 11 kt METAR EDDW 261620Z AUTO 28011KT 9999 FEW048 18/10 Q1017 TEMPO 30015G25KT
5:50 pm
V
63 °F 6¼ mi+ - 280° 280° 13 kt METAR EDDW 261550Z AUTO 28013KT 9999 FEW039 17/09 Q1017 TEMPO 30015G25KT
5:20 pm
V
63 °F 6¼ mi+ - 260° 260° 11 kt METAR EDDW 261520Z AUTO 26011KT 9999 FEW043 17/10 Q1017
4:50 pm
V
63 °F 6¼ mi+ - 260° 260° 13 kt METAR EDDW 261450Z AUTO 26013KT 9999 FEW042 17/10 Q1017 NOSIG
4:20 pm
V
64 °F 6¼ mi+ - 260° 260° 14 kt METAR EDDW 261420Z AUTO 26014KT 9999 FEW042 18/09 Q1017 NOSIG
3:50 pm
V
64 °F 6¼ mi+ 4.700 ft 260° 260° 16 kt METAR EDDW 261350Z AUTO 26016KT 9999 BKN047 18/09 Q1017 TEMPO 28015G25KT
3:20 pm
V
63 °F 6¼ mi+ - 250° 250° 13 kt METAR EDDW 261320Z AUTO 25013KT 9999 SCT047 17/09 Q1017 TEMPO 28015G25KT
2:50 pm
V
66 °F 6¼ mi+ - 260° 260° 13 kt METAR EDDW 261250Z AUTO 26013KT 240V300 9999 FEW045 19/09 Q1018 TEMPO 28020G30KT
2:20 pm
V
64 °F 6¼ mi+ - 250° 250° 14 kt METAR EDDW 261220Z AUTO 25014KT CAVOK 18/08 Q1018 TEMPO 28020G30KT
1:50 pm
V
63 °F 6¼ mi+ 4.400 ft 270° 270° 15 kt METAR EDDW 261150Z AUTO 27015KT 9999 BKN044 17/08 Q1018 TEMPO 28020G30KT
1:20 pm
V
64 °F 6¼ mi+ - 270° 270° 16 kt METAR EDDW 261120Z AUTO 27016KT 240V300 9999 FEW044 18/09 Q1018 TEMPO 27015G25KT
12:50 pm
V
64 °F 6¼ mi+ - 260° 260° 17 kt METAR EDDW 261050Z AUTO 26017KT 9999 FEW042 18/10 Q1018 TEMPO 27015G25KT
12:20 pm
V
63 °F 6¼ mi+ 4.700 ft 260° 260° 16 - 26 kt METAR EDDW 261020Z AUTO 26016G26KT 9999 SCT038 BKN047 17/09 Q1018 NOSIG
11:50 am
V
63 °F 6¼ mi+ 4.900 ft 270° 270° 17 kt METAR EDDW 260950Z AUTO 27017KT 9999 SCT041 BKN049 17/09 Q1018 TEMPO 28015G25KT
11:20 am
V
64 °F 6¼ mi+ - 270° 270° 14 kt METAR EDDW 260920Z AUTO 27014KT 240V300 9999 FEW042 18/09 Q1017 TEMPO 28015G25KT
10:50 am
V
61 °F 6¼ mi+ - 280° 280° 13 kt METAR EDDW 260850Z AUTO 28013KT 9999 SCT045 16/08 Q1017 TEMPO 28015G25KT
10:20 am
V
63 °F 6¼ mi+ - 270° 270° 13 kt METAR EDDW 260820Z AUTO 27013KT 240V300 9999 FEW039 17/08 Q1017 TEMPO 28015G25KT
9:50 am
V
61 °F 6¼ mi+ - 280° 280° 15 kt METAR EDDW 260750Z AUTO 28015KT 9999 FEW032 16/08 Q1017 TEMPO 28015G25KT
9:20 am
V
59 °F 6¼ mi+ - 280° 280° 14 kt METAR EDDW 260720Z AUTO 28014KT 250V310 9999 FEW025 SCT041 15/09 Q1016 TEMPO 28015G25KT
8:50 am
V
61 °F 6¼ mi+ - 280° 280° 12 kt METAR EDDW 260650Z AUTO 28012KT 9999 FEW021 SCT028 16/10 Q1016 TEMPO 28015G25KT
8:20 am
M
57 °F 6¼ mi+ 1.800 ft 270° 270° 14 kt METAR EDDW 260620Z AUTO 27014KT 9999 BKN018 BKN025 14/11 Q1016 TEMPO 27015G25KT
7:50 am
M
57 °F 6¼ mi+ 1.500 ft 260° 260° 12 kt METAR EDDW 260550Z AUTO 26012KT 9999 BKN015 BKN019 14/12 Q1016 TEMPO BKN014
7:20 am
M
57 °F 6¼ mi+ 2.000 ft 250° 250° 10 kt METAR EDDW 260520Z AUTO 25010KT 9999 SCT015 BKN020 14/12 Q1015 NOSIG
6:50 am
V
55 °F 6¼ mi+ - 250° 250° 7 kt METAR EDDW 260450Z AUTO 25007KT 9999 FEW010 SCT017 13/12 Q1015 NOSIG
6:20 am
V
54 °F 6¼ mi+ - 250° 250° 9 kt METAR EDDW 260420Z AUTO 25009KT 9999 SCT012 12/11 Q1015 NOSIG
5:50 am
M
54 °F 6¼ mi+ 1.300 ft 240° 240° 10 kt METAR EDDW 260350Z AUTO 24010KT 9999 BKN013 12/11 Q1015 BECMG 25015G25KT SCT015
5:20 am
V
54 °F 6¼ mi+ - 240° 240° 10 kt METAR EDDW 260320Z AUTO 24010KT CAVOK 12/11 Q1014
4:50 am
M
55 °F 4⅜ mi 4.500 ft 230° 230° 10 kt METAR EDDW 260250Z AUTO 23010KT 7000 -SHRA FEW020 BKN045 FEW///TCU 13/12 Q1014 RESHRA
4:20 am
V
55 °F 6¼ mi+ - 240° 240° 10 kt METAR EDDW 260220Z AUTO 24010KT 9999 FEW017 13/11 Q1014
3:50 am
V
55 °F 6¼ mi+ - 240° 240° 10 kt METAR EDDW 260150Z AUTO 24010KT 9999 -RADZ FEW018 13/11 Q1014
3:20 am
M
55 °F 6¼ mi+ 1.900 ft 240° 240° 9 kt METAR EDDW 260120Z AUTO 24009KT 210V270 9999 -DZ BKN019 13/11 Q1014
2:50 am
M
55 °F 6¼ mi+ 2.000 ft 240° 240° 10 kt METAR EDDW 260050Z AUTO 24010KT 9999 BKN020 BKN027 13/11 Q1014 RERA
2:20 am
M
55 °F 6¼ mi+ 2.000 ft 240° 240° 11 kt METAR EDDW 260020Z AUTO 24011KT 9999 BKN020 13/10 Q1014
1:50 am
M
55 °F 6¼ mi+ 2.100 ft 240° 240° 13 kt METAR EDDW 252350Z AUTO 24013KT 9999 -RA BKN021 BKN039 13/10 Q1014
1:20 am
M
55 °F 6¼ mi+ 2.300 ft 240° 240° 11 kt METAR EDDW 252320Z AUTO 24011KT 9999 BKN023 13/10 Q1014
12:50 am
M
55 °F 6¼ mi+ 2.700 ft 230° 230° 11 kt METAR EDDW 252250Z AUTO 23011KT 9999 BKN027 BKN034 13/10 Q1014
12:20 am
V
55 °F 6¼ mi+ 3.400 ft 240° 240° 10 kt METAR EDDW 252220Z AUTO 24010KT 9999 -RA FEW020 BKN034 13/10 Q1014

25 mai 2022

Temps Code Temps Temp. Vue Base cloud Vent METAR/SPECI
11:50 pm
V
55 °F 6¼ mi+ 3.400 ft 240° 240° 9 kt METAR EDDW 252150Z AUTO 24009KT 9999 -RA BKN034 13/10 Q1014
11:20 pm
V
57 °F 6¼ mi+ 3.100 ft 260° 260° 13 kt METAR EDDW 252120Z AUTO 26013KT 9999 BKN031 BKN038 14/09 Q1014
10:50 pm
V
59 °F 6¼ mi+ 4.300 ft 250° 250° 12 kt METAR EDDW 252050Z AUTO 25012KT 9999 BKN043 15/08 Q1014 NOSIG
10:20 pm
V
59 °F 6¼ mi+ 4.300 ft 250° 250° 8 kt METAR EDDW 252020Z AUTO 25008KT 9999 BKN043 15/08 Q1014 NOSIG
9:50 pm
V
57 °F 6¼ mi+ 4.300 ft 260° 260° 4 kt METAR EDDW 251950Z AUTO 26004KT 9999 BKN043 14/09 Q1013 NOSIG
9:20 pm
V
59 °F 6¼ mi+ - 230° 230° 6 kt METAR EDDW 251920Z AUTO 23006KT CAVOK 15/09 Q1013 NOSIG
8:50 pm
V
59 °F 6¼ mi+ - 240° 240° 6 kt METAR EDDW 251850Z AUTO 24006KT CAVOK 15/09 Q1013 NOSIG
8:20 pm
V
59 °F 6¼ mi+ - 240° 240° 5 kt METAR EDDW 251820Z AUTO 24005KT CAVOK 15/10 Q1013 NOSIG
7:50 pm
V
59 °F 6¼ mi+ - 240° 240° 4 kt METAR EDDW 251750Z AUTO 24004KT CAVOK 15/10 Q1013 NOSIG
7:20 pm
V
59 °F 6¼ mi+ - 250° 250° 4 kt METAR EDDW 251720Z AUTO 25004KT 220V280 CAVOK 15/10 Q1013 NOSIG
6:50 pm
V
61 °F 6¼ mi+ - 250° 250° 3 kt METAR EDDW 251650Z AUTO 25003KT 220V280 CAVOK 16/11 Q1013
6:20 pm
V
59 °F 6¼ mi+ - 270° 270° 7 kt METAR EDDW 251620Z AUTO 27007KT 9999 -SHRA FEW///TCU 15/10 Q1013 RESHRA TEMPO 24015G25KT
5:50 pm
V
59 °F 6¼ mi+ - 230° 230° 12 - 24 kt METAR EDDW 251550Z AUTO 23012G24KT 9999 -SHRA FEW///TCU 15/08 Q1013 RESHRA TEMPO 24020G30KT SHRA SCT040CB
5:20 pm
V
59 °F 6¼ mi+ - 230° 230° 20 kt METAR EDDW 251520Z AUTO 23020KT 9999 SHRA FEW///CB 15/09 Q1013 TEMPO 24015G30KT NSW SCT040CB
4:50 pm
V
64 °F 6¼ mi+ - 240° 240° 17 kt METAR EDDW 251450Z AUTO 24017KT CAVOK 18/06 Q1012 TEMPO 24015G25KT SHRA SCT040CB
4:20 pm
V
63 °F 6¼ mi+ - 300° 300° 11 - 24 kt METAR EDDW 251420Z AUTO 30011G24KT 230V330 9999 VCSH FEW///CB 17/09 Q1012 RESHRA TEMPO 23010KT
3:50 pm
V
64 °F 6¼ mi+ - 230° 230° 13 kt METAR EDDW 251350Z AUTO 23013KT 210V270 9999 -SHRA FEW///CB 18/07 Q1012 TEMPO 25015G30KT SHRA BKN040CB
3:20 pm
V
66 °F 6¼ mi+ - 240° 240° 12 kt METAR EDDW 251320Z AUTO 24012KT 190V290 9999 FEW028 19/08 Q1012 TEMPO 24015G25KT
2:50 pm
V
63 °F 6¼ mi+ - 230° 230° 12 kt METAR EDDW 251250Z AUTO 23012KT 9999 -SHRA FEW045 FEW///TCU 17/09 Q1013 TEMPO 25015G30KT
2:20 pm
V
64 °F 6¼ mi+ - 240° 240° 11 kt METAR EDDW 251220Z AUTO 24011KT 9999 FEW049 18/08 Q1013 TEMPO 25015G30KT SHRA SCT040CB
1:50 pm
V
64 °F 6¼ mi+ - 230° 230° 13 kt METAR EDDW 251150Z AUTO 23013KT 9999 FEW046 18/08 Q1013
Données plus anciennes

Télécharge notre application

Un accès facile à toute la météo aéronautique sur ton téléphone portable et ta tablette.
Avec de nombreuses fonctionnalités non disponibles sur le site Web, comme la prise en charge hors ligne et une liste personnelle d'aéroports.

Nous et des tiers suivons ton comportement sur Internet sur notre site Web à l'aide de cookies. Si tu continues, nous supposons que tu acceptes notre politique en matière de cookies. Apprendre plus